sensor_id;sensor_type;location;lat;lon;timestamp;pressure;altitude;pressure_sealevel;temperature
75211;BMP280;63796;53.136;14.882;2022-12-07T00:01:30;100869.16;;;4.65
75211;BMP280;63796;53.136;14.882;2022-12-07T00:03:59;100871.38;;;4.61
75211;BMP280;63796;53.136;14.882;2022-12-07T00:06:35;100876.52;;;4.61
75211;BMP280;63796;53.136;14.882;2022-12-07T00:09:05;100870.91;;;4.62
75211;BMP280;63796;53.136;14.882;2022-12-07T00:11:33;100870.12;;;4.61
75211;BMP280;63796;53.136;14.882;2022-12-07T00:14:04;100870.45;;;4.67
75211;BMP280;63796;53.136;14.882;2022-12-07T00:16:32;100864.08;;;4.72
75211;BMP280;63796;53.136;14.882;2022-12-07T00:19:00;100864.92;;;4.81
75211;BMP280;63796;53.136;14.882;2022-12-07T00:21:30;100867.52;;;4.88
75211;BMP280;63796;53.136;14.882;2022-12-07T00:23:58;100869.95;;;4.95
75211;BMP280;63796;53.136;14.882;2022-12-07T00:26:31;100871.42;;;5.03
75211;BMP280;63796;53.136;14.882;2022-12-07T00:29:05;100865.21;;;5.07
75211;BMP280;63796;53.136;14.882;2022-12-07T00:31:36;100861.69;;;5.07
75211;BMP280;63796;53.136;14.882;2022-12-07T00:34:07;100866.97;;;5.11
75211;BMP280;63796;53.136;14.882;2022-12-07T00:36:33;100858.65;;;5.16
75211;BMP280;63796;53.136;14.882;2022-12-07T00:39:00;100858.02;;;5.20
75211;BMP280;63796;53.136;14.882;2022-12-07T00:43:55;100860.63;;;5.25
75211;BMP280;63796;53.136;14.882;2022-12-07T00:46:23;100859.33;;;5.28
75211;BMP280;63796;53.136;14.882;2022-12-07T00:48:51;100851.31;;;5.31
75211;BMP280;63796;53.136;14.882;2022-12-07T00:51:22;100856.47;;;5.35
75211;BMP280;63796;53.136;14.882;2022-12-07T00:53:49;100851.03;;;5.42
75211;BMP280;63796;53.136;14.882;2022-12-07T00:56:25;100844.30;;;5.45
75211;BMP280;63796;53.136;14.882;2022-12-07T00:59:01;100844.63;;;5.51
75211;BMP280;63796;53.136;14.882;2022-12-07T01:01:30;100848.97;;;5.54
75211;BMP280;63796;53.136;14.882;2022-12-07T01:03:58;100848.01;;;5.57
75211;BMP280;63796;53.136;14.882;2022-12-07T01:06:25;100842.08;;;5.60
75211;BMP280;63796;53.136;14.882;2022-12-07T01:08:53;100841.59;;;5.59
75211;BMP280;63796;53.136;14.882;2022-12-07T01:11:25;100842.07;;;5.54
75211;BMP280;63796;53.136;14.882;2022-12-07T01:13:54;100839.98;;;5.48
75211;BMP280;63796;53.136;14.882;2022-12-07T01:16:25;100832.59;;;5.45
75211;BMP280;63796;53.136;14.882;2022-12-07T01:18:54;100833.22;;;5.41
75211;BMP280;63796;53.136;14.882;2022-12-07T01:21:34;100835.80;;;5.44
75211;BMP280;63796;53.136;14.882;2022-12-07T01:24:04;100833.86;;;5.44
75211;BMP280;63796;53.136;14.882;2022-12-07T01:26:31;100834.98;;;5.47
75211;BMP280;63796;53.136;14.882;2022-12-07T01:28:58;100828.56;;;5.50
75211;BMP280;63796;53.136;14.882;2022-12-07T01:31:28;100827.47;;;5.51
75211;BMP280;63796;53.136;14.882;2022-12-07T01:33:59;100824.11;;;5.52
75211;BMP280;63796;53.136;14.882;2022-12-07T01:36:33;100824.90;;;5.50
75211;BMP280;63796;53.136;14.882;2022-12-07T01:39:05;100819.60;;;5.48
75211;BMP280;63796;53.136;14.882;2022-12-07T01:41:37;100815.91;;;5.45
75211;BMP280;63796;53.136;14.882;2022-12-07T01:44:28;100814.45;;;5.45
75211;BMP280;63796;53.136;14.882;2022-12-07T01:47:02;100808.34;;;5.46
75211;BMP280;63796;53.136;14.882;2022-12-07T01:49:48;100808.21;;;5.47
75211;BMP280;63796;53.136;14.882;2022-12-07T01:52:28;100805.16;;;5.50
75211;BMP280;63796;53.136;14.882;2022-12-07T01:55:00;100811.26;;;5.50
75211;BMP280;63796;53.136;14.882;2022-12-07T01:57:28;100807.71;;;5.50
75211;BMP280;63796;53.136;14.882;2022-12-07T01:59:57;100808.05;;;5.50
75211;BMP280;63796;53.136;14.882;2022-12-07T02:02:28;100804.18;;;5.50
75211;BMP280;63796;53.136;14.882;2022-12-07T02:05:00;100804.53;;;5.53
75211;BMP280;63796;53.136;14.882;2022-12-07T02:07:29;100805.64;;;5.56
75211;BMP280;63796;53.136;14.882;2022-12-07T02:09:56;100802.92;;;5.53
75211;BMP280;63796;53.136;14.882;2022-12-07T02:12:25;100800.34;;;5.53
75211;BMP280;63796;53.136;14.882;2022-12-07T02:14:52;100795.52;;;5.55
75211;BMP280;63796;53.136;14.882;2022-12-07T02:17:34;100791.52;;;5.56
75211;BMP280;63796;53.136;14.882;2022-12-07T02:20:30;100788.78;;;5.54
75211;BMP280;63796;53.136;14.882;2022-12-07T02:26:17;100785.27;;;5.55
75211;BMP280;63796;53.136;14.882;2022-12-07T02:31:32;100780.92;;;5.58
75211;BMP280;63796;53.136;14.882;2022-12-07T02:34:13;100776.59;;;5.60
75211;BMP280;63796;53.136;14.882;2022-12-07T02:36:44;100768.42;;;5.61
75211;BMP280;63796;53.136;14.882;2022-12-07T02:39:32;100764.09;;;5.59
75211;BMP280;63796;53.136;14.882;2022-12-07T02:42:01;100761.35;;;5.57
75211;BMP280;63796;53.136;14.882;2022-12-07T02:44:29;100759.11;;;5.57
75211;BMP280;63796;53.136;14.882;2022-12-07T02:47:07;100759.10;;;5.62
75211;BMP280;63796;53.136;14.882;2022-12-07T02:49:36;100759.91;;;5.65
75211;BMP280;63796;53.136;14.882;2022-12-07T02:52:04;100760.55;;;5.68
75211;BMP280;63796;53.136;14.882;2022-12-07T02:54:31;100760.86;;;5.74
75211;BMP280;63796;53.136;14.882;2022-12-07T02:57:36;100754.12;;;5.78
75211;BMP280;63796;53.136;14.882;2022-12-07T03:00:14;100745.95;;;5.77
75211;BMP280;63796;53.136;14.882;2022-12-07T03:02:58;100750.27;;;5.79
75211;BMP280;63796;53.136;14.882;2022-12-07T03:05:45;100750.77;;;5.82
75211;BMP280;63796;53.136;14.882;2022-12-07T03:08:50;100744.69;;;5.82
75211;BMP280;63796;53.136;14.882;2022-12-07T03:11:20;100743.08;;;5.85
75211;BMP280;63796;53.136;14.882;2022-12-07T03:16:34;100740.16;;;5.90
75211;BMP280;63796;53.136;14.882;2022-12-07T03:19:18;100734.22;;;5.95
75211;BMP280;63796;53.136;14.882;2022-12-07T03:21:56;100737.59;;;5.98
75211;BMP280;63796;53.136;14.882;2022-12-07T03:24:42;100729.23;;;6.01
75211;BMP280;63796;53.136;14.882;2022-12-07T03:27:28;100725.22;;;6.03
75211;BMP280;63796;53.136;14.882;2022-12-07T03:29:39;100720.23;;;6.03
75211;BMP280;63796;53.136;14.882;2022-12-07T03:32:23;100717.20;;;6.03
75211;BMP280;63796;53.136;14.882;2022-12-07T03:35:16;100710.92;;;5.97
75211;BMP280;63796;53.136;14.882;2022-12-07T03:37:45;100690.87;;;5.87
75211;BMP280;63796;53.136;14.882;2022-12-07T03:42:51;100701.17;;;5.54
75211;BMP280;63796;53.136;14.882;2022-12-07T03:45:22;100699.74;;;5.42
75211;BMP280;63796;53.136;14.882;2022-12-07T03:48:02;100693.33;;;5.37
75211;BMP280;63796;53.136;14.882;2022-12-07T03:50:52;100696.05;;;5.34
75211;BMP280;63796;53.136;14.882;2022-12-07T03:53:30;100697.33;;;5.29
75211;BMP280;63796;53.136;14.882;2022-12-07T03:55:58;100691.23;;;5.25
75211;BMP280;63796;53.136;14.882;2022-12-07T03:58:25;100680.66;;;5.24
75211;BMP280;63796;53.136;14.882;2022-12-07T04:00:53;100680.48;;;5.21
75211;BMP280;63796;53.136;14.882;2022-12-07T04:03:20;100677.44;;;5.16
75211;BMP280;63796;53.136;14.882;2022-12-07T04:05:47;100677.27;;;5.14
75211;BMP280;63796;53.136;14.882;2022-12-07T04:08:14;100669.09;;;5.08
75211;BMP280;63796;53.136;14.882;2022-12-07T04:10:41;100664.45;;;5.02
75211;BMP280;63796;53.136;14.882;2022-12-07T04:13:07;100662.66;;;4.98
75211;BMP280;63796;53.136;14.882;2022-12-07T04:15:35;100656.58;;;4.92
75211;BMP280;63796;53.136;14.882;2022-12-07T04:18:02;100662.99;;;4.87
75211;BMP280;63796;53.136;14.882;2022-12-07T04:20:28;100662.98;;;4.85
75211;BMP280;63796;53.136;14.882;2022-12-07T04:22:55;100653.02;;;4.79
75211;BMP280;63796;53.136;14.882;2022-12-07T04:25:22;100659.12;;;4.77
75211;BMP280;63796;53.136;14.882;2022-12-07T04:27:49;100658.96;;;4.80
75211;BMP280;63796;53.136;14.882;2022-12-07T04:30:17;100652.72;;;4.80
75211;BMP280;63796;53.136;14.882;2022-12-07T04:32:44;100655.91;;;4.78
75211;BMP280;63796;53.136;14.882;2022-12-07T04:35:10;100649.81;;;4.76
75211;BMP280;63796;53.136;14.882;2022-12-07T04:37:37;100648.20;;;4.74
75211;BMP280;63796;53.136;14.882;2022-12-07T04:40:08;100650.28;;;4.70
75211;BMP280;63796;53.136;14.882;2022-12-07T04:42:38;100648.86;;;4.72
75211;BMP280;63796;53.136;14.882;2022-12-07T04:45:06;100639.72;;;4.76
75211;BMP280;63796;53.136;14.882;2022-12-07T04:47:33;100634.59;;;4.78
75211;BMP280;63796;53.136;14.882;2022-12-07T04:49:59;100643.57;;;4.78
75211;BMP280;63796;53.136;14.882;2022-12-07T04:52:26;100644.53;;;4.78
75211;BMP280;63796;53.136;14.882;2022-12-07T04:54:53;100639.08;;;4.81
75211;BMP280;63796;53.136;14.882;2022-12-07T04:57:20;100631.08;;;4.80
75211;BMP280;63796;53.136;14.882;2022-12-07T04:59:47;100631.72;;;4.83
75211;BMP280;63796;53.136;14.882;2022-12-07T05:02:14;100619.04;;;4.82
75211;BMP280;63796;53.136;14.882;2022-12-07T05:04:40;100624.16;;;4.68
75211;BMP280;63796;53.136;14.882;2022-12-07T05:07:07;100619.98;;;4.59
75211;BMP280;63796;53.136;14.882;2022-12-07T05:09:34;100614.19;;;4.49
75211;BMP280;63796;53.136;14.882;2022-12-07T05:12:01;100613.83;;;4.39
75211;BMP280;63796;53.136;14.882;2022-12-07T05:14:27;100612.87;;;4.32
75211;BMP280;63796;53.136;14.882;2022-12-07T05:16:55;100601.49;;;4.29
75211;BMP280;63796;53.136;14.882;2022-12-07T05:19:24;100600.68;;;4.27
75211;BMP280;63796;53.136;14.882;2022-12-07T05:21:52;100599.70;;;4.25
75211;BMP280;63796;53.136;14.882;2022-12-07T05:24:19;100599.73;;;4.26
75211;BMP280;63796;53.136;14.882;2022-12-07T05:26:46;100594.25;;;4.22
75211;BMP280;63796;53.136;14.882;2022-12-07T05:29:15;100596.67;;;4.22
75211;BMP280;63796;53.136;14.882;2022-12-07T05:31:43;100587.53;;;4.18
75211;BMP280;63796;53.136;14.882;2022-12-07T05:34:10;100594.24;;;4.16
75211;BMP280;63796;53.136;14.882;2022-12-07T05:36:36;100581.89;;;4.14
75211;BMP280;63796;53.136;14.882;2022-12-07T05:39:03;100581.23;;;4.10
75211;BMP280;63796;53.136;14.882;2022-12-07T05:41:30;100578.34;;;4.06
75211;BMP280;63796;53.136;14.882;2022-12-07T05:44:15;100584.12;;;4.04
75211;BMP280;63796;53.136;14.882;2022-12-07T05:46:42;100571.63;;;4.06
75211;BMP280;63796;53.136;14.882;2022-12-07T05:49:09;100576.10;;;4.00
75211;BMP280;63796;53.136;14.882;2022-12-07T05:51:36;100570.47;;;3.91
75211;BMP280;63796;53.136;14.882;2022-12-07T05:54:03;100577.97;;;3.87
75211;BMP280;63796;53.136;14.882;2022-12-07T05:56:30;100569.48;;;3.85
75211;BMP280;63796;53.136;14.882;2022-12-07T05:58:56;100566.42;;;3.81
75211;BMP280;63796;53.136;14.882;2022-12-07T06:01:41;100558.89;;;3.78
75211;BMP280;63796;53.136;14.882;2022-12-07T06:04:08;100563.49;;;3.71
75211;BMP280;63796;53.136;14.882;2022-12-07T06:06:35;100566.03;;;3.68
75211;BMP280;63796;53.136;14.882;2022-12-07T06:09:03;100556.56;;;3.64
75211;BMP280;63796;53.136;14.882;2022-12-07T06:11:30;100560.94;;;3.69
75211;BMP280;63796;53.136;14.882;2022-12-07T06:14:15;100559.66;;;3.72
75211;BMP280;63796;53.136;14.882;2022-12-07T06:16:42;100554.89;;;3.77
75211;BMP280;63796;53.136;14.882;2022-12-07T06:19:09;100554.08;;;3.77
75211;BMP280;63796;53.136;14.882;2022-12-07T06:21:36;100552.63;;;3.77
75211;BMP280;63796;53.136;14.882;2022-12-07T06:24:03;100548.16;;;3.74
75211;BMP280;63796;53.136;14.882;2022-12-07T06:26:30;100541.56;;;3.72
75211;BMP280;63796;53.136;14.882;2022-12-07T06:28:57;100543.81;;;3.71
75211;BMP280;63796;53.136;14.882;2022-12-07T06:31:24;100537.11;;;3.72
75211;BMP280;63796;53.136;14.882;2022-12-07T06:33:51;100537.88;;;3.65
75211;BMP280;63796;53.136;14.882;2022-12-07T06:36:17;100536.40;;;3.61
75211;BMP280;63796;53.136;14.882;2022-12-07T06:38:44;100537.22;;;3.65
75211;BMP280;63796;53.136;14.882;2022-12-07T06:41:11;100536.59;;;3.65
75211;BMP280;63796;53.136;14.882;2022-12-07T06:43:38;100528.73;;;3.64
75211;BMP280;63796;53.136;14.882;2022-12-07T06:46:05;100523.17;;;3.69
75211;BMP280;63796;53.136;14.882;2022-12-07T06:48:31;100522.54;;;3.73
75211;BMP280;63796;53.136;14.882;2022-12-07T06:50:58;100525.43;;;3.73
75211;BMP280;63796;53.136;14.882;2022-12-07T06:53:25;100524.64;;;3.78
75211;BMP280;63796;53.136;14.882;2022-12-07T06:55:52;100520.17;;;3.81
75211;BMP280;63796;53.136;14.882;2022-12-07T06:58:19;100520.52;;;3.86
75211;BMP280;63796;53.136;14.882;2022-12-07T07:00:47;100520.02;;;3.83
75211;BMP280;63796;53.136;14.882;2022-12-07T07:03:14;100520.97;;;3.79
75211;BMP280;63796;53.136;14.882;2022-12-07T07:05:42;100521.45;;;3.77
75211;BMP280;63796;53.136;14.882;2022-12-07T07:08:09;100519.67;;;3.79
75211;BMP280;63796;53.136;14.882;2022-12-07T07:10:36;100518.59;;;3.83
75211;BMP280;63796;53.136;14.882;2022-12-07T07:13:03;100521.31;;;3.89
75211;BMP280;63796;53.136;14.882;2022-12-07T07:15:32;100519.88;;;3.90
75211;BMP280;63796;53.136;14.882;2022-12-07T07:18:00;100517.48;;;3.92
75211;BMP280;63796;53.136;14.882;2022-12-07T07:20:27;100512.20;;;3.93
75211;BMP280;63796;53.136;14.882;2022-12-07T07:22:56;100509.34;;;3.95
75211;BMP280;63796;53.136;14.882;2022-12-07T07:25:23;100515.44;;;3.99
75211;BMP280;63796;53.136;14.882;2022-12-07T07:27:50;100507.91;;;4.01
75211;BMP280;63796;53.136;14.882;2022-12-07T07:30:17;100504.40;;;4.03
75211;BMP280;63796;53.136;14.882;2022-12-07T07:32:43;100504.73;;;4.04
75211;BMP280;63796;53.136;14.882;2022-12-07T07:35:10;100499.59;;;4.09
75211;BMP280;63796;53.136;14.882;2022-12-07T07:37:37;100500.42;;;4.16
75211;BMP280;63796;53.136;14.882;2022-12-07T07:40:05;100502.81;;;4.17
75211;BMP280;63796;53.136;14.882;2022-12-07T07:42:32;100501.55;;;4.19
75211;BMP280;63796;53.136;14.882;2022-12-07T07:44:59;100503.31;;;4.22
75211;BMP280;63796;53.136;14.882;2022-12-07T07:47:25;100494.36;;;4.23
75211;BMP280;63796;53.136;14.882;2022-12-07T07:49:52;100491.63;;;4.27
75211;BMP280;63796;53.136;14.882;2022-12-07T07:52:19;100485.73;;;4.31
75211;BMP280;63796;53.136;14.882;2022-12-07T07:54:46;100491.33;;;4.37
75211;BMP280;63796;53.136;14.882;2022-12-07T07:57:13;100487.33;;;4.45
75211;BMP280;63796;53.136;14.882;2022-12-07T07:59:40;100484.13;;;4.51
75211;BMP280;63796;53.136;14.882;2022-12-07T08:02:16;100480.27;;;4.51
75211;BMP280;63796;53.136;14.882;2022-12-07T08:04:45;100485.41;;;4.53
75211;BMP280;63796;53.136;14.882;2022-12-07T08:07:13;100482.52;;;4.54
75211;BMP280;63796;53.136;14.882;2022-12-07T08:09:40;100483.16;;;4.54
75211;BMP280;63796;53.136;14.882;2022-12-07T08:12:07;100478.81;;;4.56
75211;BMP280;63796;53.136;14.882;2022-12-07T08:14:34;100482.83;;;4.55
75211;BMP280;63796;53.136;14.882;2022-12-07T08:17:01;100482.05;;;4.54
75211;BMP280;63796;53.136;14.882;2022-12-07T08:19:28;100482.34;;;4.60
75211;BMP280;63796;53.136;14.882;2022-12-07T08:21:55;100482.03;;;4.65
75211;BMP280;63796;53.136;14.882;2022-12-07T08:24:23;100482.18;;;4.66
75211;BMP280;63796;53.136;14.882;2022-12-07T08:26:51;100479.97;;;4.68
75211;BMP280;63796;53.136;14.882;2022-12-07T08:29:18;100476.75;;;4.72
75211;BMP280;63796;53.136;14.882;2022-12-07T08:31:45;100473.84;;;4.76
75211;BMP280;63796;53.136;14.882;2022-12-07T08:34:13;100476.89;;;4.86
75211;BMP280;63796;53.136;14.882;2022-12-07T08:36:40;100473.05;;;4.90
75211;BMP280;63796;53.136;14.882;2022-12-07T08:39:07;100471.27;;;4.94
75211;BMP280;63796;53.136;14.882;2022-12-07T08:41:34;100469.33;;;5.02
75211;BMP280;63796;53.136;14.882;2022-12-07T08:44:01;100469.26;;;5.27
75211;BMP280;63796;53.136;14.882;2022-12-07T08:46:42;100462.37;;;5.63
75211;BMP280;63796;53.136;14.882;2022-12-07T08:49:23;100455.78;;;5.67
75211;BMP280;63796;53.136;14.882;2022-12-07T08:51:46;100460.17;;;5.52
75211;BMP280;63796;53.136;14.882;2022-12-07T08:54:17;100464.36;;;5.53
75211;BMP280;63796;53.136;14.882;2022-12-07T08:56:46;100467.39;;;5.56
75211;BMP280;63796;53.136;14.882;2022-12-07T08:59:17;100464.03;;;5.55
75211;BMP280;63796;53.136;14.882;2022-12-07T09:01:44;100470.77;;;5.56
75211;BMP280;63796;53.136;14.882;2022-12-07T09:04:11;100465.75;;;5.60
75211;BMP280;63796;53.136;14.882;2022-12-07T09:06:38;100465.41;;;5.65
75211;BMP280;63796;53.136;14.882;2022-12-07T09:09:06;100465.25;;;5.63
75211;BMP280;63796;53.136;14.882;2022-12-07T09:11:34;100465.28;;;5.61
75211;BMP280;63796;53.136;14.882;2022-12-07T09:14:01;100463.86;;;5.56
75211;BMP280;63796;53.136;14.882;2022-12-07T09:16:28;100467.08;;;5.50
75211;BMP280;63796;53.136;14.882;2022-12-07T09:18:54;100461.31;;;5.47
75211;BMP280;63796;53.136;14.882;2022-12-07T09:21:22;100465.03;;;5.45
75211;BMP280;63796;53.136;14.882;2022-12-07T09:23:49;100464.56;;;5.44
75211;BMP280;63796;53.136;14.882;2022-12-07T09:26:16;100467.30;;;5.38
75211;BMP280;63796;53.136;14.882;2022-12-07T09:28:43;100465.22;;;5.33
75211;BMP280;63796;53.136;14.882;2022-12-07T09:31:10;100456.73;;;5.34
75211;BMP280;63796;53.136;14.882;2022-12-07T09:33:36;100462.31;;;5.42
75211;BMP280;63796;53.136;14.882;2022-12-07T09:36:04;100461.66;;;5.45
75211;BMP280;63796;53.136;14.882;2022-12-07T09:38:31;100459.53;;;5.50
75211;BMP280;63796;53.136;14.882;2022-12-07T09:41:05;100455.33;;;5.60
75211;BMP280;63796;53.136;14.882;2022-12-07T09:43:35;100455.55;;;5.79
75211;BMP280;63796;53.136;14.882;2022-12-07T09:46:03;100453.00;;;6.06
75211;BMP280;63796;53.136;14.882;2022-12-07T09:48:34;100450.72;;;6.36
75211;BMP280;63796;53.136;14.882;2022-12-07T09:51:20;100446.50;;;6.38
75211;BMP280;63796;53.136;14.882;2022-12-07T09:53:48;100450.20;;;6.41
75211;BMP280;63796;53.136;14.882;2022-12-07T09:56:18;100446.21;;;6.38
75211;BMP280;63796;53.136;14.882;2022-12-07T09:58:47;100452.06;;;6.28
75211;BMP280;63796;53.136;14.882;2022-12-07T10:01:18;100447.17;;;6.17
75211;BMP280;63796;53.136;14.882;2022-12-07T10:06:20;100442.47;;;6.22
75211;BMP280;63796;53.136;14.882;2022-12-07T10:08:47;100450.58;;;6.33
75211;BMP280;63796;53.136;14.882;2022-12-07T10:11:14;100443.83;;;6.51
75211;BMP280;63796;53.136;14.882;2022-12-07T10:13:51;100437.23;;;6.70
75211;BMP280;63796;53.136;14.882;2022-12-07T10:16:41;100440.72;;;6.75
75211;BMP280;63796;53.136;14.882;2022-12-07T10:19:31;100442.98;;;6.73
75211;BMP280;63796;53.136;14.882;2022-12-07T10:22:16;100443.95;;;6.76
75211;BMP280;63796;53.136;14.882;2022-12-07T10:24:47;100438.59;;;6.78
75211;BMP280;63796;53.136;14.882;2022-12-07T10:27:26;100440.36;;;6.78
75211;BMP280;63796;53.136;14.882;2022-12-07T10:29:53;100444.10;;;6.91
75211;BMP280;63796;53.136;14.882;2022-12-07T10:32:33;100445.37;;;6.92
75211;BMP280;63796;53.136;14.882;2022-12-07T10:35:24;100450.38;;;6.89
75211;BMP280;63796;53.136;14.882;2022-12-07T10:37:57;100446.08;;;7.03
75211;BMP280;63796;53.136;14.882;2022-12-07T10:40:35;100442.28;;;7.12
75211;BMP280;63796;53.136;14.882;2022-12-07T10:43:18;100445.83;;;7.24
75211;BMP280;63796;53.136;14.882;2022-12-07T11:00:25;100450.80;;;8.22
75211;BMP280;63796;53.136;14.882;2022-12-07T11:09:14;100441.55;;;8.47
75211;BMP280;63796;53.136;14.882;2022-12-07T11:11:43;100449.45;;;8.16
75211;BMP280;63796;53.136;14.882;2022-12-07T11:14:44;100449.84;;;7.99
75211;BMP280;63796;53.136;14.882;2022-12-07T11:20:34;100451.27;;;7.90
75211;BMP280;63796;53.136;14.882;2022-12-07T11:32:17;100441.66;;;7.37
75211;BMP280;63796;53.136;14.882;2022-12-07T11:37:37;100440.80;;;7.13
75211;BMP280;63796;53.136;14.882;2022-12-07T11:40:30;100438.38;;;7.01
75211;BMP280;63796;53.136;14.882;2022-12-07T11:43:28;100438.28;;;6.95
75211;BMP280;63796;53.136;14.882;2022-12-07T11:46:12;100437.02;;;6.91
75211;BMP280;63796;53.136;14.882;2022-12-07T11:48:51;100432.69;;;6.92
75211;BMP280;63796;53.136;14.882;2022-12-07T11:51:21;100434.51;;;7.00
75211;BMP280;63796;53.136;14.882;2022-12-07T11:54:15;100430.64;;;7.17
75211;BMP280;63796;53.136;14.882;2022-12-07T11:56:35;100433.69;;;7.31
75211;BMP280;63796;53.136;14.882;2022-12-07T11:59:19;100433.69;;;7.55
75211;BMP280;63796;53.136;14.882;2022-12-07T12:02:18;100429.94;;;7.72
75211;BMP280;63796;53.136;14.882;2022-12-07T12:05:33;100430.30;;;7.70
75211;BMP280;63796;53.136;14.882;2022-12-07T12:07:26;100433.45;;;7.63
75211;BMP280;63796;53.136;14.882;2022-12-07T12:10:00;100432.18;;;7.48
75211;BMP280;63796;53.136;14.882;2022-12-07T12:13:17;100432.74;;;7.29
75211;BMP280;63796;53.136;14.882;2022-12-07T12:16:12;100443.13;;;7.07
75211;BMP280;63796;53.136;14.882;2022-12-07T12:21:35;100436.50;;;6.65
75211;BMP280;63796;53.136;14.882;2022-12-07T12:24:16;100432.47;;;6.64
75211;BMP280;63796;53.136;14.882;2022-12-07T12:26:56;100428.09;;;6.69
75211;BMP280;63796;53.136;14.882;2022-12-07T12:29:30;100430.45;;;6.74
75211;BMP280;63796;53.136;14.882;2022-12-07T12:32:22;100430.57;;;6.61
75211;BMP280;63796;53.136;14.882;2022-12-07T12:35:19;100429.00;;;7.17
75211;BMP280;63796;53.136;14.882;2022-12-07T12:42:53;100439.67;;;8.00
75211;BMP280;63796;53.136;14.882;2022-12-07T12:45:28;100438.08;;;7.78
75211;BMP280;63796;53.136;14.882;2022-12-07T12:48:04;100445.30;;;7.54
75211;BMP280;63796;53.136;14.882;2022-12-07T12:50:36;100437.73;;;7.42
75211;BMP280;63796;53.136;14.882;2022-12-07T12:53:24;100444.21;;;7.39
75211;BMP280;63796;53.136;14.882;2022-12-07T12:56:35;100437.21;;;7.45
75211;BMP280;63796;53.136;14.882;2022-12-07T12:58:44;100426.42;;;7.58
75211;BMP280;63796;53.136;14.882;2022-12-07T13:01:42;100426.94;;;7.44
75211;BMP280;63796;53.136;14.882;2022-12-07T13:04:48;100432.22;;;7.45
75211;BMP280;63796;53.136;14.882;2022-12-07T13:07:12;100431.09;;;7.45
75211;BMP280;63796;53.136;14.882;2022-12-07T13:09:43;100431.61;;;7.29
75211;BMP280;63796;53.136;14.882;2022-12-07T13:12:16;100426.06;;;7.09
75211;BMP280;63796;53.136;14.882;2022-12-07T13:14:55;100419.25;;;6.85
75211;BMP280;63796;53.136;14.882;2022-12-07T13:20:07;100422.20;;;6.60
75211;BMP280;63796;53.136;14.882;2022-12-07T13:22:40;100419.09;;;6.52
75211;BMP280;63796;53.136;14.882;2022-12-07T13:25:27;100417.72;;;6.44
75211;BMP280;63796;53.136;14.882;2022-12-07T13:28:22;100420.09;;;6.28
75211;BMP280;63796;53.136;14.882;2022-12-07T13:30:30;100422.09;;;6.18
75211;BMP280;63796;53.136;14.882;2022-12-07T13:32:59;100414.30;;;6.06
75211;BMP280;63796;53.136;14.882;2022-12-07T13:35:35;100416.52;;;5.89
75211;BMP280;63796;53.136;14.882;2022-12-07T13:38:27;100419.80;;;5.71
75211;BMP280;63796;53.136;14.882;2022-12-07T13:49:53;100436.86;;;5.25
75211;BMP280;63796;53.136;14.882;2022-12-07T13:52:27;100433.98;;;5.26
75211;BMP280;63796;53.136;14.882;2022-12-07T13:55:14;100440.72;;;5.26
75211;BMP280;63796;53.136;14.882;2022-12-07T13:57:41;100435.27;;;5.22
75211;BMP280;63796;53.136;14.882;2022-12-07T14:00:20;100450.23;;;5.15
75211;BMP280;63796;53.136;14.882;2022-12-07T14:05:44;100453.47;;;4.99
75211;BMP280;63796;53.136;14.882;2022-12-07T14:10:54;100464.53;;;4.82
75211;BMP280;63796;53.136;14.882;2022-12-07T14:13:34;100474.83;;;4.79
75211;BMP280;63796;53.136;14.882;2022-12-07T14:16:15;100464.39;;;4.74
75211;BMP280;63796;53.136;14.882;2022-12-07T14:18:40;100467.30;;;4.67
75211;BMP280;63796;53.136;14.882;2022-12-07T14:21:23;100466.97;;;4.63
75211;BMP280;63796;53.136;14.882;2022-12-07T14:26:43;100459.27;;;4.66
75211;BMP280;63796;53.136;14.882;2022-12-07T14:29:32;100458.80;;;4.72
75211;BMP280;63796;53.136;14.882;2022-12-07T14:32:17;100459.12;;;4.77
75211;BMP280;63796;53.136;14.882;2022-12-07T14:34:37;100458.30;;;4.80
75211;BMP280;63796;53.136;14.882;2022-12-07T14:37:09;100460.72;;;4.75
75211;BMP280;63796;53.136;14.882;2022-12-07T14:39:37;100458.00;;;4.72
75211;BMP280;63796;53.136;14.882;2022-12-07T14:42:03;100456.06;;;4.70
75211;BMP280;63796;53.136;14.882;2022-12-07T14:44:30;100458.33;;;4.67
75211;BMP280;63796;53.136;14.882;2022-12-07T14:46:57;100460.41;;;4.62
75211;BMP280;63796;53.136;14.882;2022-12-07T14:49:24;100458.95;;;4.53
75211;BMP280;63796;53.136;14.882;2022-12-07T14:51:51;100462.34;;;4.50
75211;BMP280;63796;53.136;14.882;2022-12-07T14:54:20;100454.17;;;4.51
75211;BMP280;63796;53.136;14.882;2022-12-07T14:56:48;100455.45;;;4.50
75211;BMP280;63796;53.136;14.882;2022-12-07T14:59:18;100448.41;;;4.48
75211;BMP280;63796;53.136;14.882;2022-12-07T15:01:45;100445.83;;;4.44
75211;BMP280;63796;53.136;14.882;2022-12-07T15:04:12;100443.27;;;4.39
75211;BMP280;63796;53.136;14.882;2022-12-07T15:06:39;100444.70;;;4.36
75211;BMP280;63796;53.136;14.882;2022-12-07T15:09:06;100434.79;;;4.29
75211;BMP280;63796;53.136;14.882;2022-12-07T15:11:33;100440.06;;;4.27
75211;BMP280;63796;53.136;14.882;2022-12-07T15:14:00;100441.98;;;4.25
75211;BMP280;63796;53.136;14.882;2022-12-07T15:16:40;100441.68;;;4.24
75211;BMP280;63796;53.136;14.882;2022-12-07T15:19:18;100437.52;;;4.23
75211;BMP280;63796;53.136;14.882;2022-12-07T15:21:43;100439.26;;;4.22
75211;BMP280;63796;53.136;14.882;2022-12-07T15:24:13;100432.22;;;4.24
75211;BMP280;63796;53.136;14.882;2022-12-07T15:26:40;100431.11;;;4.24
75211;BMP280;63796;53.136;14.882;2022-12-07T15:29:08;100430.46;;;4.25
75211;BMP280;63796;53.136;14.882;2022-12-07T15:31:35;100427.09;;;4.25
75211;BMP280;63796;53.136;14.882;2022-12-07T15:34:03;100429.65;;;4.22
75211;BMP280;63796;53.136;14.882;2022-12-07T15:36:33;100429.97;;;4.25
75211;BMP280;63796;53.136;14.882;2022-12-07T15:39:00;100428.70;;;4.26
75211;BMP280;63796;53.136;14.882;2022-12-07T15:41:27;100426.30;;;4.22
75211;BMP280;63796;53.136;14.882;2022-12-07T15:43:53;100417.31;;;4.14